Flight Track Log - Related Links

Times and Time Zones

All times are in EDT time to prevent confusion due to time zone crossing. See the USC608 flight status page for this flight to view local times or setup timezone preferences in your user account.

Time Position Orientation Groundspeed Altitude Reporting Facility
EDT Latitude Longitude Course Direction KTS MPH feet Rate Location/Type
Thu 10:42:09 PM 44.9550 -93.0678 46° Northeast 127 146 1,700  Level FAA TRACON SMA TRACON (SMA)
Thu 10:42:29 PM 44.9647 -93.0533 46° Northeast 131 151 2,500 1,950 Climbing FAA TRACON SMA TRACON (SMA)
Thu 10:42:49 PM 44.9717 -93.0478 30° Northeast 116 133 3,000 1,050 Climbing FAA TRACON SMA TRACON (SMA)
Thu 10:43:09 PM 44.9761 -93.0600 297° West 138 159 3,200 923 Climbing FAA TRACON SMA TRACON (SMA)
Thu 10:43:28 PM 44.9708 -93.0789 248° West 145 167 3,600 1,200 Climbing FAA TRACON SMA TRACON (SMA)
Thu 10:43:49 PM 44.9572 -93.0894 209° Southwest 173 199 4,000 1,171 Climbing FAA TRACON SMA TRACON (SMA)
Thu 10:44:09 PM 44.9444 -93.0989 208° Southwest 173 199 4,400 1,050 Climbing FAA TRACON SMA TRACON (SMA)
Thu 10:44:29 PM 44.9278 -93.1103 206° Southwest 173 199 4,700 750 Climbing FAA TRACON SMA TRACON (SMA)
Thu 10:44:49 PM 44.9142 -93.1211 209° Southwest 178 205 4,900 462 Climbing FAA TRACON SMA TRACON (SMA)
Thu 10:45:08 PM 44.9008 -93.1336 214° Southwest 185 213 5,000 150 Climbing FAA TRACON SMA TRACON (SMA)
Thu 10:45:29 PM 44.8836 -93.1525 218° Southwest 202 232 5,000  Level FAA TRACON SMA TRACON (SMA)
Thu 10:45:49 PM 44.8689 -93.1681 217° Southwest 212 244 5,000  Level FAA TRACON SMA TRACON (SMA)
Thu 10:46:09 PM 44.8542 -93.1842 218° Southwest 218 251 5,000 150 Level FAA TRACON SMA TRACON (SMA)
Thu 10:46:29 PM 44.8389 -93.1989 214° Southwest 217 250 5,100 450 Climbing FAA TRACON SMA TRACON (SMA)
Thu 10:46:49 PM 44.8203 -93.2136 209° Southwest 204 235 5,300 750 Climbing FAA TRACON SMA TRACON (SMA)
Thu 10:47:09 PM 44.8056 -93.2256 210° Southwest 198 228 5,600 923 Climbing FAA TRACON SMA TRACON (SMA)
Thu 10:47:28 PM 44.7906 -93.2347 203° Southwest 191 220 5,900 450 Climbing FAA TRACON SMA TRACON (SMA)
Thu 10:47:49 PM 44.7722 -93.2472 206° Southwest 190 219 5,900 146 Level FAA TRACON SMA TRACON (SMA)
Thu 10:48:09 PM 44.7569 -93.2592 209° Southwest 200 230 6,000 150 Climbing FAA TRACON SMA TRACON (SMA)
Thu 10:48:29 PM 44.7419 -93.2719 211° Southwest 205 236 6,000  Level FAA TRACON SMA TRACON (SMA)
Thu 10:48:49 PM 44.7264 -93.2847 210° Southwest 210 242 6,000  Level FAA TRACON SMA TRACON (SMA)
Thu 10:49:08 PM 44.7067 -93.3014 211° Southwest 213 245 6,000  Level FAA TRACON SMA TRACON (SMA)
Thu 10:49:29 PM 44.6906 -93.3150 211° Southwest 218 251 6,000  Level FAA TRACON SMA TRACON (SMA)
Thu 10:49:49 PM 44.6742 -93.3283 210° Southwest 221 254 6,000  Level FAA TRACON SMA TRACON (SMA)
Thu 10:50:09 PM 44.6544 -93.3458 212° Southwest 219 252 6,000  Level FAA TRACON SMA TRACON (SMA)
Thu 10:50:29 PM 44.6381 -93.3586 209° Southwest 219 252 6,000  Level FAA TRACON SMA TRACON (SMA)
Thu 10:50:48 PM 44.6222 -93.3728 212° Southwest 218 251 6,000  Level FAA TRACON SMA TRACON (SMA)
Thu 10:51:09 PM 44.6025 -93.3908 213° Southwest 218 251 6,000  Level FAA TRACON SMA TRACON (SMA)
Thu 10:51:29 PM 44.5867 -93.4033 209° Southwest 215 247 6,000  Level FAA TRACON SMA TRACON (SMA)
Thu 10:51:49 PM 44.5708 -93.4172 212° Southwest 216 249 6,000  Level FAA TRACON SMA TRACON (SMA)
Thu 10:52:09 PM 44.5514 -93.4344 212° Southwest 214 246 6,000  Level FAA TRACON SMA TRACON (SMA)
Thu 10:52:28 PM 44.5356 -93.4475 210° Southwest 213 245 6,000  Level FAA TRACON SMA TRACON (SMA)
Thu 10:52:49 PM 44.5206 -93.4625 215° Southwest 214 246 6,000  Level FAA TRACON SMA TRACON (SMA)
Thu 10:53:09 PM 44.5011 -93.4789 211° Southwest 212 244 6,000  Level FAA TRACON SMA TRACON (SMA)
Thu 10:53:29 PM 44.4864 -93.4933 215° Southwest 211 243 6,000  Level FAA TRACON SMA TRACON (SMA)
Thu 10:53:49 PM 44.4703 -93.5058 209° Southwest 211 243 6,000  Level FAA TRACON SMA TRACON (SMA)
Thu 10:54:08 PM 44.4553 -93.5194 213° Southwest 212 244 6,000  Level FAA TRACON SMA TRACON (SMA)
Thu 10:54:29 PM 44.4358 -93.5356 211° Southwest 212 244 6,000  Level FAA TRACON SMA TRACON (SMA)
Thu 10:54:49 PM 44.4197 -93.5475 208° Southwest 210 242 6,000  Level FAA TRACON SMA TRACON (SMA)
Thu 10:55:09 PM 44.4000 -93.5636 210° Southwest 213 245 6,000  Level FAA TRACON SMA TRACON (SMA)
Thu 10:55:29 PM 44.3850 -93.5778 214° Southwest 212 244 6,000  Level FAA TRACON SMA TRACON (SMA)
Thu 10:55:49 PM 44.3694 -93.5908 211° Southwest 211 243 6,000  Level FAA TRACON SMA TRACON (SMA)
Thu 10:56:09 PM 44.3500 -93.6072 211° Southwest 211 243 6,000  Level FAA TRACON SMA TRACON (SMA)
Thu 10:56:29 PM 44.3339 -93.6183 206° Southwest 210 242 6,000 -146 Level FAA TRACON SMA TRACON (SMA)
Thu 10:56:50 PM 44.3164 -93.6261 198° South 211 243 5,900 -150 Descending FAA TRACON SMA TRACON (SMA)
Thu 10:57:09 PM 44.2961 -93.6400 206° Southwest 212 244 5,900 154 Level FAA TRACON SMA TRACON (SMA)
Thu 10:57:29 PM 44.2800 -93.6508 206° Southwest 210 242 6,000 154 Climbing FAA TRACON SMA TRACON (SMA)
Thu 10:57:48 PM 44.2639 -93.6619 206° Southwest 209 241 6,000  Level FAA TRACON SMA TRACON (SMA)
Thu 10:58:09 PM 44.2425 -93.6731 200° South 211 243 6,000 -146 Level FAA TRACON SMA TRACON (SMA)
Thu 10:58:29 PM 44.2267 -93.6856 209° Southwest 210 242 5,900 -150 Descending FAA TRACON SMA TRACON (SMA)
Thu 10:58:49 PM 44.2117 -93.6997 214° Southwest 211 243 5,900  Level FAA TRACON SMA TRACON (SMA)
Thu 10:59:09 PM 44.1961 -93.7122 210° Southwest 210 242 5,900  Level FAA TRACON SMA TRACON (SMA)
Thu 10:59:29 PM 44.1769 -93.7272 209° Southwest 207 238 5,900  Level FAA TRACON SMA TRACON (SMA)
Thu 10:59:49 PM 44.1614 -93.7400 211° Southwest 209 241 5,900  Level FAA TRACON SMA TRACON (SMA)
Thu 11:00:09 PM 44.1464 -93.7542 214° Southwest 210 242 5,900  Level FAA TRACON SMA TRACON (SMA)
Thu 11:00:29 PM 44.1275 -93.7697 211° Southwest 207 238 5,900  Level FAA TRACON SMA TRACON (SMA)
Thu 11:00:49 PM 44.1122 -93.7822 210° Southwest 207 238 5,900  Level FAA TRACON SMA TRACON (SMA)
Thu 11:01:09 PM 44.0939 -93.7997 214° Southwest 207 238 5,900  Level FAA TRACON SMA TRACON (SMA)
Thu 11:01:29 PM 44.0783 -93.8128 211° Southwest 209 241 5,900  Level FAA TRACON SMA TRACON (SMA)
Thu 11:01:49 PM 44.0633 -93.8258 212° Southwest 208 239 5,900  Level FAA TRACON SMA TRACON (SMA)
Thu 11:02:10 PM 44.0442 -93.8417 211° Southwest 208 239 5,900  Level FAA TRACON SMA TRACON (SMA)
Thu 11:02:30 PM 44.0283 -93.8528 207° Southwest 207 238 5,900  Level FAA TRACON SMA TRACON (SMA)
Thu 11:02:49 PM 44.0136 -93.8661 213° Southwest 205 236 5,900  Level FAA TRACON SMA TRACON (SMA)
Thu 11:03:09 PM 44.0058 -93.8717 207° Southwest 204 235 5,900 231 Level FAA TRACON SMA TRACON (SMA)
Thu 11:03:41 PM 43.9758 -93.8947 209° Southwest 204 235 6,100 129 Climbing Minneapolis Center
Thu 11:04:42 PM 43.9253 -93.9314 208° Southwest 203 234 6,100  Level Minneapolis Center
Thu 11:05:43 PM 43.8744 -93.9683 208° Southwest 207 238 6,100  Level Minneapolis Center
Thu 11:06:45 PM 43.8253 -94.0061 209° Southwest 205 236 6,100 -49 Level Minneapolis Center
Thu 11:07:46 PM 43.7775 -94.0472 212° Southwest 203 234 6,000 -49 Descending Minneapolis Center
Thu 11:08:47 PM 43.7197 -94.0922 209° Southwest 201 231 6,000  Level Minneapolis Center
Thu 11:09:49 PM 43.6711 -94.1294 209° Southwest 200 230 6,000  Level Minneapolis Center
Thu 11:10:50 PM 43.6222 -94.1683 210° Southwest 202 232 6,000  Level Minneapolis Center
Thu 11:11:51 PM 43.5744 -94.2064 210° Southwest 201 231 6,000  Level Minneapolis Center
Thu 11:12:53 PM 43.5258 -94.2447 210° Southwest 200 230 6,000  Level Minneapolis Center
Thu 11:13:54 PM 43.4731 -94.2819 207° Southwest 202 232 6,000  Level Minneapolis Center
Thu 11:14:55 PM 43.4231 -94.3161 206° Southwest 201 231 6,000  Level Minneapolis Center
Thu 11:15:57 PM 43.3747 -94.3558 211° Southwest 202 232 6,000  Level Minneapolis Center
Thu 11:16:58 PM 43.3286 -94.3936 211° Southwest 200 230 6,000  Level Minneapolis Center
Thu 11:17:59 PM 43.2794 -94.4342 211° Southwest 200 230 6,000  Level Minneapolis Center
Thu 11:19:01 PM 43.2192 -94.4800 209° Southwest 203 234 6,000  Level Minneapolis Center
Thu 11:20:02 PM 43.1706 -94.5158 208° Southwest 202 232 6,000  Level Minneapolis Center
Thu 11:21:03 PM 43.1169 -94.5594 211° Southwest 207 238 6,000  Level Minneapolis Center
Thu 11:22:04 PM 43.0703 -94.5936 208° Southwest 207 238 6,000  Level Minneapolis Center
Thu 11:23:05 PM 43.0158 -94.6369 210° Southwest 208 239 6,000  Level Minneapolis Center
Thu 11:24:07 PM 42.9667 -94.6728 208° Southwest 208 239 6,000  Level Minneapolis Center
Thu 11:25:08 PM 42.9150 -94.7153 211° Southwest 211 243 6,000  Level Minneapolis Center
Thu 11:27:00 PM 42.8151 -94.7595 207° Southwest  Level FlightAware Approximate
Thu 11:29:00 PM 42.7158 -94.8644 209° Southwest 230 265 6,000  Level Minneapolis Center
Thu 11:30:01 PM 42.6647 -94.9019 208° Southwest 211 243 6,000  Level Minneapolis Center
Thu 11:31:02 PM 42.6125 -94.9403 208° Southwest 212 244 6,000 98 Level Minneapolis Center
Thu 11:32:03 PM 42.5611 -94.9764 207° Southwest 210 242 6,200 98 Climbing Minneapolis Center
Thu 11:33:05 PM 42.5100 -95.0128 208° Southwest 209 241 6,200  Level Minneapolis Center
Thu 11:34:00 PM 42.4817 -95.0048 209° Southwest  Level FlightAware Approximate
Thu 11:34:06 PM 42.4594 -95.0486 208° Southwest 207 238 6,200  Level Minneapolis Center
Thu 11:35:07 PM 42.4089 -95.0856 208° Southwest 206 237 6,100  Descending Minneapolis Center
Thu 11:36:08 PM 42.3486 -95.1297 208° Southwest 206 237 6,200 -49 Climbing Minneapolis Center
Thu 11:37:09 PM 42.2989 -95.1700 211° Southwest 206 237 6,000 -98 Descending Minneapolis Center
Thu 11:38:10 PM 42.2497 -95.2100 211° Southwest 207 238 6,000 -49 Level Minneapolis Center
Thu 11:39:11 PM 42.2000 -95.2472 209° Southwest 206 237 5,900  Descending Minneapolis Center
Thu 11:40:12 PM 42.1497 -95.2836 208° Southwest 205 236 6,000 98 Climbing Minneapolis Center
Thu 11:41:14 PM 42.0992 -95.3211 209° Southwest 206 237 6,100 49 Climbing Minneapolis Center
Thu 11:42:15 PM 42.0483 -95.3561 207° Southwest 206 237 6,100  Level Minneapolis Center
Thu 11:42:53 PM 42.0172 -95.4028 228° Southwest 208 239 6,100  Level Minneapolis Center
Thu 11:43:16 PM 41.9967 -95.3917 158° South 206 237 6,100  Level Minneapolis Center
Thu 11:44:17 PM 41.9472 -95.4314 211° Southwest 207 238 6,100  Level Minneapolis Center
Thu 11:44:36 PM 41.9292 -95.4614 231° Southwest 211 243 6,100 -98 Level Minneapolis Center
Thu 11:45:18 PM 41.8894 -95.4497 168° South 212 244 6,000  Descending Minneapolis Center
Thu 11:45:36 PM 41.8669 -95.4664 209° Southwest 225 259 6,100 98 Climbing Minneapolis Center
Thu 11:46:19 PM 41.8278 -95.4567 170° South 219 252 6,100  Level Minneapolis Center
Thu 11:46:37 PM 41.8069 -95.4767 216° Southwest 219 252 6,100  Level Minneapolis Center
Thu 11:47:20 PM 41.7672 -95.4714 174° South 220 253 6,100  Level Minneapolis Center
Thu 11:47:38 PM 41.7433 -95.4956 217° Southwest 216 249 6,100  Level Minneapolis Center
Thu 11:48:22 PM 41.6975 -95.4961 181° South 218 251 6,100  Level Minneapolis Center
Thu 11:48:44 PM 41.6800 -95.5175 222° Southwest 218 251 6,100  Level Minneapolis Center
Thu 11:49:23 PM 41.6389 -95.5183 181° South 218 251 6,100 -98 Level Minneapolis Center
Thu 11:49:45 PM 41.6225 -95.5356 218° Southwest 217 250 6,000 -295 Descending Minneapolis Center
Thu 11:50:24 PM 41.5800 -95.5364 181° South 217 250 5,800 -400 Descending Minneapolis Center
Thu 11:50:45 PM 41.5631 -95.5514 214° Southwest 218 251 5,600 -632 Descending Minneapolis Center
Thu 11:51:40 PM 41.5075 -95.5664 191° South 217 250 5,000 -475 Descending Minneapolis Center
Thu 11:52:26 PM 41.4633 -95.5711 185° South 215 247 4,800 -358 Descending Minneapolis Center
Thu 11:52:47 PM 41.4478 -95.5792 201° Southwest 208 239 4,600 -590 Descending Minneapolis Center
Thu 11:53:27 PM 41.4044 -95.5728 174° South 212 244 4,200 -500 Descending Minneapolis Center
Thu 11:53:47 PM 41.3844 -95.5731 181° South 209 241 4,100 -194 Descending Minneapolis Center
Thu 11:54:29 PM 41.3464 -95.5656 172° South 210 242 4,000  Descending Minneapolis Center
Thu 11:54:48 PM 41.3275 -95.5686 187° South 199 229 4,100  Climbing Minneapolis Center
Thu 11:55:30 PM 41.2936 -95.5625 172° South 201 231 4,000 98 Descending Minneapolis Center
Thu 11:55:49 PM 41.2772 -95.5664 190° South 185 213 4,200 98 Climbing Minneapolis Center
Thu 11:56:31 PM 41.2419 -95.5614 174° South 193 222 4,100 -200 Descending Minneapolis Center
Thu 11:56:49 PM 41.2322 -95.5803 236° Southwest 173 199 4,000  Descending Minneapolis Center
Thu 11:57:32 PM 41.2072 -95.5994 210° Southwest 173 199 4,100 98 Climbing Minneapolis Center
Thu 11:57:50 PM 41.1947 -95.6153 224° Southwest 161 185 4,100 -98 Level Minneapolis Center
Thu 11:58:33 PM 41.1714 -95.6375 216° Southwest 166 191 4,000 -209 Descending Minneapolis Center
Thu 11:59:45 PM 41.1481 -95.6956 242° Southwest 141 162 3,700 -390 Descending Minneapolis Center
Fri 12:00:36 AM 41.1519 -95.7267 279° West 144 166 3,200 -375 Descending Minneapolis Center
Fri 12:01:37 AM 41.1675 -95.7625 300° West 123 142 3,000 -158 Descending Minneapolis Center
Fri 12:01:52 AM 41.1806 -95.7750 324° Northwest 106 122 3,000 98 Level Minneapolis Center
Fri 12:02:38 AM 41.1969 -95.7925 321° Northwest 112 129 3,100  Climbing Minneapolis Center
Fri 12:03:39 AM 41.2214 -95.8119 329° Northwest 109 125 3,000 -295 Descending Minneapolis Center
Fri 12:04:40 AM 41.2389 -95.8286 324° Northwest 94 108 2,500 -443 Descending Minneapolis Center
Fri 12:05:41 AM 41.2581 -95.8469 324° Northwest 87 100 2,100 -443 Descending Minneapolis Center
Fri 12:06:42 AM 41.2778 -95.8661 324° Northwest 87 100 1,600 -541 Descending Minneapolis Center
Fri 12:07:43 AM 41.2972 -95.8850 324° Northwest 87 100 1,000 -590 Descending Minneapolis Center

Login

Don't have an account? Register now (free) for customized features, flight alerts, and more!